createdAt,value
2022-07-26T00:01:59.204Z,22.38
2022-07-26T00:04:28.737Z,22.37
2022-07-26T00:06:56.628Z,22.59
2022-07-26T00:09:24.378Z,22.52
2022-07-26T00:11:52.215Z,22.55
2022-07-26T00:14:20.240Z,22.58
2022-07-26T00:16:48.195Z,22.68
2022-07-26T00:19:16.081Z,22.52
2022-07-26T00:21:45.615Z,22.19
2022-07-26T00:24:13.557Z,22.37
2022-07-26T00:26:41.674Z,22.33
2022-07-26T00:29:09.839Z,22.40
2022-07-26T00:31:37.857Z,22.51
2022-07-26T00:34:05.728Z,22.42
2022-07-26T00:36:33.551Z,22.47
2022-07-26T00:39:03.276Z,22.49
2022-07-26T00:41:31.129Z,22.50
2022-07-26T00:44:00.047Z,22.54
2022-07-26T00:46:27.914Z,22.31
2022-07-26T00:48:56.060Z,22.10
2022-07-26T00:51:24.248Z,22.05
2022-07-26T00:53:52.024Z,22.22
2022-07-26T00:56:21.783Z,22.02
2022-07-26T00:58:49.598Z,22.08
2022-07-26T01:01:17.563Z,21.86
2022-07-26T01:03:45.689Z,21.65
2022-07-26T01:06:13.530Z,21.86
2022-07-26T01:08:41.476Z,21.68
2022-07-26T01:11:09.329Z,21.61
2022-07-26T01:13:38.482Z,21.58
2022-07-26T01:16:06.807Z,21.46
2022-07-26T01:18:34.678Z,21.31
2022-07-26T01:21:13.348Z,21.45
2022-07-26T01:23:44.712Z,21.41
2022-07-26T01:26:13.962Z,21.21
2022-07-26T01:28:42.328Z,21.31
2022-07-26T01:31:10.224Z,21.09
2022-07-26T01:33:38.123Z,20.94
2022-07-26T01:36:06.593Z,21.18
2022-07-26T01:38:34.384Z,21.04
2022-07-26T01:41:03.542Z,20.88
2022-07-26T01:43:31.425Z,20.96
2022-07-26T01:45:59.339Z,20.72
2022-07-26T01:48:27.353Z,20.83
2022-07-26T01:50:55.238Z,20.79
2022-07-26T01:53:23.082Z,20.71
2022-07-26T01:55:50.870Z,20.91
2022-07-26T01:58:20.049Z,20.79
2022-07-26T02:00:47.905Z,20.69
2022-07-26T02:03:16.030Z,20.71
2022-07-26T02:05:43.908Z,20.62
2022-07-26T02:08:12.288Z,20.72
2022-07-26T02:10:58.063Z,20.63
2022-07-26T02:13:27.957Z,20.64
2022-07-26T02:15:55.807Z,20.54
2022-07-26T02:18:23.667Z,20.68
2022-07-26T02:20:51.436Z,20.74
2022-07-26T02:23:19.284Z,20.58
2022-07-26T02:25:47.775Z,20.67
2022-07-26T02:28:15.902Z,20.49
2022-07-26T02:30:45.271Z,20.60
2022-07-26T02:33:13.282Z,20.65
2022-07-26T02:35:42.989Z,20.66
2022-07-26T02:38:12.962Z,20.78
2022-07-26T02:40:41.742Z,20.62
2022-07-26T02:43:10.430Z,20.45
2022-07-26T02:45:38.558Z,20.50
2022-07-26T02:48:08.384Z,20.61
2022-07-26T02:50:36.250Z,20.61
2022-07-26T02:53:04.228Z,20.71
2022-07-26T02:55:32.048Z,20.52
2022-07-26T02:57:59.848Z,20.88
2022-07-26T03:00:28.528Z,20.76
2022-07-26T03:02:56.447Z,20.72
2022-07-26T03:05:25.775Z,20.71
2022-07-26T03:07:53.607Z,20.62
2022-07-26T03:10:21.789Z,20.74
2022-07-26T03:12:49.535Z,20.69
2022-07-26T03:15:17.415Z,20.69
2022-07-26T03:17:45.180Z,20.78
2022-07-26T03:20:13.856Z,20.92
2022-07-26T03:22:43.065Z,20.80
2022-07-26T03:25:10.931Z,20.78
2022-07-26T03:27:38.889Z,20.98
2022-07-26T03:30:08.064Z,20.65
2022-07-26T03:32:35.855Z,20.88
2022-07-26T03:35:03.671Z,20.79
2022-07-26T03:37:44.715Z,20.91
2022-07-26T03:40:16.361Z,20.97
2022-07-26T03:42:44.330Z,20.88
2022-07-26T03:45:13.955Z,20.88
2022-07-26T03:47:41.866Z,20.81
2022-07-26T03:50:10.938Z,20.73
2022-07-26T03:52:38.964Z,20.84
2022-07-26T03:55:21.775Z,20.48
2022-07-26T03:57:51.009Z,20.40
2022-07-26T04:00:18.896Z,20.43
2022-07-26T04:02:46.814Z,20.38
2022-07-26T04:05:14.655Z,20.35
2022-07-26T04:07:43.604Z,20.59
2022-07-26T04:10:20.687Z,20.54
2022-07-26T04:12:49.945Z,20.59
2022-07-26T04:15:19.094Z,20.72
2022-07-26T04:17:48.296Z,20.67
2022-07-26T04:20:16.592Z,20.82
2022-07-26T04:22:44.929Z,20.48
2022-07-26T04:25:12.946Z,20.47
2022-07-26T04:27:40.818Z,20.45
2022-07-26T04:30:15.038Z,20.10
2022-07-26T04:32:43.782Z,20.41
2022-07-26T04:35:13.666Z,20.27
2022-07-26T04:37:42.753Z,20.46
2022-07-26T04:40:12.937Z,20.06
2022-07-26T04:42:40.902Z,19.90
2022-07-26T04:45:12.660Z,19.72
2022-07-26T04:47:42.404Z,19.77
2022-07-26T04:50:11.179Z,19.43
2022-07-26T04:52:39.009Z,19.60
2022-07-26T04:55:07.366Z,19.56
2022-07-26T04:57:35.492Z,19.28
2022-07-26T05:00:23.464Z,19.17
2022-07-26T05:02:54.693Z,19.56
2022-07-26T05:05:22.790Z,19.45
2022-07-26T05:07:52.421Z,19.45
2022-07-26T05:10:21.349Z,19.22
2022-07-26T05:12:49.924Z,19.16
2022-07-26T05:15:17.789Z,19.27
2022-07-26T05:17:46.062Z,19.25
2022-07-26T05:20:17.124Z,19.34
2022-07-26T05:22:45.477Z,19.32
2022-07-26T05:25:13.255Z,19.35
2022-07-26T05:27:41.738Z,19.56
2022-07-26T05:30:10.828Z,19.80
2022-07-26T05:32:38.732Z,19.92
2022-07-26T05:35:07.668Z,20.15
2022-07-26T05:37:36.914Z,20.05
2022-07-26T05:40:06.215Z,19.95
2022-07-26T05:42:34.083Z,19.82
2022-07-26T05:45:01.893Z,19.90
2022-07-26T05:47:31.037Z,19.81
2022-07-26T05:49:59.162Z,19.84
2022-07-26T05:52:26.956Z,19.81
2022-07-26T05:54:56.066Z,19.84
2022-07-26T05:57:23.879Z,19.93
2022-07-26T05:59:51.696Z,20.13
2022-07-26T06:02:19.622Z,20.14
2022-07-26T06:04:47.726Z,19.78
2022-07-26T06:07:15.925Z,20.03
2022-07-26T06:09:43.978Z,20.02
2022-07-26T06:12:13.217Z,19.95
2022-07-26T06:14:41.051Z,20.39
2022-07-26T06:17:08.964Z,20.49
2022-07-26T06:19:37.178Z,20.48
2022-07-26T06:22:04.984Z,20.53
2022-07-26T06:24:32.781Z,20.79
2022-07-26T06:27:04.871Z,20.47
2022-07-26T06:29:34.615Z,20.40
2022-07-26T06:32:02.519Z,20.49
2022-07-26T06:34:30.720Z,20.93
2022-07-26T06:36:58.647Z,21.08
2022-07-26T06:39:26.453Z,21.10
2022-07-26T06:41:54.270Z,21.01
2022-07-26T06:44:23.830Z,20.58
2022-07-26T06:46:52.988Z,20.76
2022-07-26T06:49:22.739Z,20.85
2022-07-26T06:51:50.951Z,20.87
2022-07-26T06:54:18.856Z,20.52
2022-07-26T06:56:46.890Z,20.62
2022-07-26T06:59:14.701Z,20.54
2022-07-26T07:01:57.987Z,20.77
2022-07-26T07:04:30.227Z,20.71
2022-07-26T07:07:02.749Z,21.23
2022-07-26T07:09:33.536Z,21.37
2022-07-26T07:12:08.434Z,21.37
2022-07-26T07:14:38.648Z,21.71
2022-07-26T07:17:10.531Z,21.94
2022-07-26T07:19:43.243Z,21.98
2022-07-26T07:22:12.237Z,22.22
2022-07-26T07:24:40.714Z,21.94
2022-07-26T07:27:09.028Z,21.71
2022-07-26T07:29:38.973Z,21.64
2022-07-26T07:32:18.545Z,21.93
2022-07-26T07:34:49.692Z,21.83
2022-07-26T07:37:17.820Z,22.13
2022-07-26T07:39:50.087Z,22.40
2022-07-26T07:42:19.225Z,22.66
2022-07-26T07:44:47.053Z,22.92
2022-07-26T07:47:15.151Z,22.50
2022-07-26T07:49:43.047Z,21.83
2022-07-26T07:52:12.367Z,21.67
2022-07-26T07:54:40.301Z,21.60
2022-07-26T07:57:10.131Z,22.22
2022-07-26T07:59:39.437Z,22.77
2022-07-26T08:02:07.929Z,22.47
2022-07-26T08:04:35.979Z,23.29
2022-07-26T08:07:03.896Z,22.70
2022-07-26T08:09:33.795Z,22.78
2022-07-26T08:12:01.942Z,23.44
2022-07-26T08:14:30.108Z,23.31
2022-07-26T08:16:57.945Z,23.03
2022-07-26T08:19:26.139Z,22.84
2022-07-26T08:21:58.841Z,22.98
2022-07-26T08:24:26.927Z,23.59
2022-07-26T08:26:56.074Z,23.47
2022-07-26T08:29:23.934Z,23.18
2022-07-26T08:31:52.867Z,23.89
2022-07-26T08:34:21.923Z,23.72
2022-07-26T08:37:15.398Z,23.57
2022-07-26T08:39:37.566Z,23.87
2022-07-26T08:42:14.328Z,24.47
2022-07-26T08:44:44.005Z,24.82
2022-07-26T08:47:13.050Z,25.01
2022-07-26T08:49:41.138Z,24.70
2022-07-26T08:52:09.586Z,24.76
2022-07-26T08:54:37.793Z,24.73
2022-07-26T08:57:06.989Z,24.49
2022-07-26T08:59:34.831Z,24.51
2022-07-26T09:02:04.252Z,24.15
2022-07-26T09:04:38.813Z,24.22
2022-07-26T09:07:13.414Z,24.15
2022-07-26T09:09:57.457Z,25.46
2022-07-26T09:12:28.457Z,26.02
2022-07-26T09:14:57.058Z,25.27
2022-07-26T09:17:26.213Z,25.36
2022-07-26T09:20:09.965Z,24.78
2022-07-26T09:22:38.829Z,24.53
2022-07-26T09:25:20.823Z,24.38
2022-07-26T09:27:50.201Z,24.39
2022-07-26T09:30:18.373Z,23.15
2022-07-26T09:32:59.055Z,23.15
2022-07-26T09:38:15.286Z,22.22
2022-07-26T09:40:44.852Z,22.18
2022-07-26T09:43:24.589Z,22.05
2022-07-26T09:46:05.043Z,22.27
2022-07-26T09:48:59.431Z,22.05
2022-07-26T09:51:36.765Z,22.17
2022-07-26T09:54:05.463Z,22.66
2022-07-26T09:56:47.318Z,23.75
2022-07-26T09:59:18.009Z,23.76
2022-07-26T10:01:46.932Z,23.94
2022-07-26T10:04:14.974Z,24.30
2022-07-26T10:06:43.705Z,24.30
2022-07-26T10:09:12.481Z,24.09
2022-07-26T10:11:43.573Z,24.06
2022-07-26T10:14:39.530Z,23.82
2022-07-26T10:17:39.483Z,23.67
2022-07-26T10:20:17.649Z,23.77
2022-07-26T10:22:52.306Z,23.10
2022-07-26T10:25:48.731Z,23.49
2022-07-26T10:28:27.307Z,23.49
2022-07-26T10:31:29.367Z,23.82
2022-07-26T10:33:59.382Z,23.98
2022-07-26T10:36:33.364Z,24.65
2022-07-26T10:39:10.181Z,25.71
2022-07-26T10:41:40.869Z,25.67
2022-07-26T10:44:17.089Z,25.77
2022-07-26T10:47:04.845Z,24.84
2022-07-26T10:49:35.088Z,24.75
2022-07-26T10:52:17.120Z,24.73
2022-07-26T10:55:14.893Z,24.54
2022-07-26T10:57:44.173Z,24.36
2022-07-26T11:00:18.546Z,23.61
2022-07-26T11:02:53.871Z,23.48
2022-07-26T11:05:23.118Z,22.93
2022-07-26T11:07:56.522Z,22.90
2022-07-26T11:10:30.295Z,22.70
2022-07-26T11:13:08.285Z,22.36
2022-07-26T11:15:37.076Z,22.36
2022-07-26T11:18:17.562Z,22.63
2022-07-26T11:20:46.899Z,22.33
2022-07-26T11:23:24.271Z,22.53
2022-07-26T11:26:03.042Z,22.94
2022-07-26T11:28:31.408Z,22.90
2022-07-26T11:30:59.495Z,22.63
2022-07-26T11:33:38.804Z,23.17
2022-07-26T11:36:07.463Z,23.66
2022-07-26T11:38:45.765Z,23.84
2022-07-26T11:41:15.119Z,24.38
2022-07-26T11:43:43.293Z,25.16
2022-07-26T11:46:11.122Z,26.25
2022-07-26T11:48:46.326Z,25.65
2022-07-26T11:51:15.949Z,26.50
2022-07-26T11:53:43.826Z,26.54
2022-07-26T11:56:16.272Z,26.26
2022-07-26T11:58:47.928Z,26.22
2022-07-26T12:01:17.573Z,26.47
2022-07-26T12:03:49.377Z,25.79
2022-07-26T12:06:19.733Z,25.61
2022-07-26T12:08:55.745Z,25.79
2022-07-26T12:11:25.844Z,25.25
2022-07-26T12:13:56.449Z,24.91
2022-07-26T12:16:43.897Z,24.06
2022-07-26T12:19:25.893Z,25.18
2022-07-26T12:21:56.391Z,25.39
2022-07-26T12:24:42.381Z,25.29
2022-07-26T12:27:12.381Z,24.93
2022-07-26T12:29:42.158Z,25.19
2022-07-26T12:32:15.762Z,25.04
2022-07-26T12:34:56.354Z,25.82
2022-07-26T12:37:33.710Z,26.84
2022-07-26T12:40:11.618Z,28.52
2022-07-26T12:42:42.131Z,29.49
2022-07-26T12:45:11.860Z,29.24
2022-07-26T12:47:41.956Z,28.85
2022-07-26T12:50:12.896Z,29.32
2022-07-26T12:52:41.022Z,28.01
2022-07-26T12:55:11.558Z,27.73
2022-07-26T12:57:45.909Z,28.17
2022-07-26T13:00:17.703Z,27.47
2022-07-26T13:02:46.212Z,28.51
2022-07-26T13:05:15.980Z,29.69
2022-07-26T13:07:44.044Z,29.11
2022-07-26T13:13:00.352Z,27.39
2022-07-26T13:15:36.211Z,27.29
2022-07-26T13:18:06.997Z,28.14
2022-07-26T13:20:37.728Z,28.87
2022-07-26T13:23:05.848Z,28.95
2022-07-26T13:25:39.859Z,29.27
2022-07-26T13:28:09.082Z,27.96
2022-07-26T13:30:38.271Z,27.28
2022-07-26T13:33:06.311Z,27.07
2022-07-26T13:35:34.101Z,27.43
2022-07-26T13:38:03.263Z,27.14
2022-07-26T13:40:31.982Z,27.35
2022-07-26T13:43:00.158Z,26.49
2022-07-26T13:45:29.356Z,26.00
2022-07-26T13:47:57.514Z,25.82
2022-07-26T13:50:27.403Z,25.90
2022-07-26T13:52:55.521Z,25.73
2022-07-26T13:55:25.073Z,26.12
2022-07-26T13:57:57.055Z,26.43
2022-07-26T14:00:26.017Z,27.45
2022-07-26T14:02:54.166Z,28.76
2022-07-26T14:05:22.183Z,29.49
2022-07-26T14:07:50.354Z,29.97
2022-07-26T14:10:18.588Z,29.52
2022-07-26T14:12:48.409Z,29.69
2022-07-26T14:15:21.668Z,30.67
2022-07-26T14:17:50.808Z,31.57
2022-07-26T14:20:18.913Z,32.76
2022-07-26T14:22:47.960Z,31.29
2022-07-26T14:25:15.746Z,29.66
2022-07-26T14:27:43.583Z,28.82
2022-07-26T14:30:14.326Z,28.58
2022-07-26T14:32:42.237Z,28.16
2022-07-26T14:35:10.636Z,27.73
2022-07-26T14:37:41.823Z,27.93
2022-07-26T14:40:13.931Z,27.76
2022-07-26T14:42:41.831Z,27.20
2022-07-26T14:45:11.902Z,26.89
2022-07-26T14:47:39.806Z,26.47
2022-07-26T14:50:08.903Z,26.37
2022-07-26T14:52:38.279Z,25.89
2022-07-26T14:55:07.441Z,25.66
2022-07-26T14:57:39.339Z,25.36
2022-07-26T15:00:08.929Z,25.16
2022-07-26T15:02:39.411Z,25.32
2022-07-26T15:05:07.672Z,25.50
2022-07-26T15:07:35.477Z,25.40
2022-07-26T15:10:03.260Z,25.98
2022-07-26T15:12:31.975Z,26.25
2022-07-26T15:14:59.799Z,26.47
2022-07-26T15:17:27.659Z,26.23
2022-07-26T15:19:56.877Z,26.04
2022-07-26T15:22:24.668Z,25.57
2022-07-26T15:24:52.522Z,25.32
2022-07-26T15:27:20.433Z,25.03
2022-07-26T15:29:49.909Z,24.94
2022-07-26T15:32:18.065Z,24.80
2022-07-26T15:34:45.959Z,24.97
2022-07-26T15:37:15.144Z,24.75
2022-07-26T15:39:43.225Z,24.48
2022-07-26T15:42:11.094Z,24.33
2022-07-26T15:44:43.164Z,24.51
2022-07-26T15:47:11.731Z,24.50
2022-07-26T15:49:40.789Z,24.16
2022-07-26T15:52:11.010Z,24.13
2022-07-26T15:54:42.013Z,24.00
2022-07-26T15:57:09.941Z,24.12
2022-07-26T15:59:37.756Z,24.16
2022-07-26T16:02:07.823Z,23.93
2022-07-26T16:04:35.830Z,24.07
2022-07-26T16:07:03.732Z,24.07
2022-07-26T16:09:31.586Z,24.21
2022-07-26T16:12:05.639Z,24.05
2022-07-26T16:14:34.000Z,23.96
2022-07-26T16:17:02.013Z,23.59
2022-07-26T16:19:29.896Z,24.04
2022-07-26T16:21:57.866Z,24.36
2022-07-26T16:24:26.032Z,24.66
2022-07-26T16:26:54.169Z,24.76
2022-07-26T16:29:23.327Z,24.60
2022-07-26T16:31:51.225Z,25.04
2022-07-26T16:34:19.327Z,24.85
2022-07-26T16:36:47.158Z,24.60
2022-07-26T16:39:15.530Z,24.14
2022-07-26T16:41:43.613Z,24.01
2022-07-26T16:44:11.449Z,23.28
2022-07-26T16:46:40.734Z,22.96
2022-07-26T16:49:09.297Z,23.08
2022-07-26T16:51:37.424Z,22.99
2022-07-26T16:54:05.645Z,23.09
2022-07-26T16:56:33.438Z,22.94
2022-07-26T16:59:01.351Z,22.88
2022-07-26T17:01:29.213Z,22.89
2022-07-26T17:03:58.421Z,22.59
2022-07-26T17:06:26.257Z,22.25
2022-07-26T17:08:54.070Z,22.13
2022-07-26T17:11:21.897Z,22.17
2022-07-26T17:13:49.758Z,22.20
2022-07-26T17:16:24.417Z,22.35
2022-07-26T17:18:52.963Z,22.28
2022-07-26T17:21:22.188Z,22.16
2022-07-26T17:23:50.256Z,22.25
2022-07-26T17:26:18.465Z,22.34
2022-07-26T17:28:46.772Z,22.32
2022-07-26T17:31:14.713Z,22.27
2022-07-26T17:33:42.570Z,22.40
2022-07-26T17:36:22.727Z,22.59
2022-07-26T17:38:50.704Z,22.60
2022-07-26T17:41:19.325Z,22.80
2022-07-26T17:43:47.382Z,22.62
2022-07-26T17:46:15.412Z,22.53
2022-07-26T17:48:44.008Z,22.69
2022-07-26T17:51:11.867Z,22.57
2022-07-26T17:53:42.224Z,22.35
2022-07-26T17:56:11.095Z,22.29
2022-07-26T17:58:38.975Z,22.33
2022-07-26T18:01:07.245Z,22.18
2022-07-26T18:03:35.256Z,22.13
2022-07-26T18:06:03.176Z,22.27
2022-07-26T18:08:31.587Z,22.13
2022-07-26T18:11:02.735Z,22.14
2022-07-26T18:13:30.597Z,22.08
2022-07-26T18:16:01.775Z,22.22
2022-07-26T18:18:32.072Z,22.21
2022-07-26T18:21:00.005Z,21.88
2022-07-26T18:23:28.066Z,22.05
2022-07-26T18:25:57.998Z,22.18
2022-07-26T18:28:27.144Z,22.19
2022-07-26T18:30:55.031Z,22.21
2022-07-26T18:33:22.943Z,22.07
2022-07-26T18:35:50.977Z,21.93
2022-07-26T18:38:18.865Z,22.06
2022-07-26T18:40:46.673Z,21.95
2022-07-26T18:43:14.585Z,22.10
2022-07-26T18:45:43.798Z,21.93
2022-07-26T18:48:11.606Z,21.78
2022-07-26T18:50:39.917Z,21.71
2022-07-26T18:53:07.925Z,21.72
2022-07-26T18:55:35.748Z,21.63
2022-07-26T18:58:06.955Z,21.74
2022-07-26T19:00:36.328Z,21.78
2022-07-26T19:03:05.710Z,21.81
2022-07-26T19:05:35.727Z,21.84
2022-07-26T19:08:04.353Z,21.71
2022-07-26T19:10:32.181Z,21.70
2022-07-26T19:13:00.002Z,21.72
2022-07-26T19:15:28.193Z,21.73
2022-07-26T19:17:56.079Z,21.50
2022-07-26T19:20:25.389Z,21.51
2022-07-26T19:22:53.224Z,21.38
2022-07-26T19:25:21.111Z,21.30
2022-07-26T19:27:48.911Z,21.37
2022-07-26T19:30:16.692Z,21.34
2022-07-26T19:32:44.499Z,21.36
2022-07-26T19:35:12.350Z,21.38
2022-07-26T19:37:41.863Z,21.59
2022-07-26T19:40:10.831Z,21.43
2022-07-26T19:42:38.638Z,21.51
2022-07-26T19:45:06.990Z,21.52
2022-07-26T19:47:35.615Z,21.47
2022-07-26T19:50:04.733Z,21.39
2022-07-26T19:52:32.592Z,21.29
2022-07-26T19:55:01.720Z,21.24
2022-07-26T19:57:29.574Z,21.29
2022-07-26T19:59:58.005Z,21.27
2022-07-26T20:02:25.862Z,21.33
2022-07-26T20:04:54.071Z,21.40
2022-07-26T20:07:21.977Z,21.43
2022-07-26T20:09:50.768Z,21.34
2022-07-26T20:12:22.429Z,21.27
2022-07-26T20:14:50.330Z,21.35
2022-07-26T20:17:18.299Z,21.20
2022-07-26T20:19:46.203Z,21.27
2022-07-26T20:22:14.184Z,21.24
2022-07-26T20:24:41.962Z,21.31
2022-07-26T20:27:09.840Z,21.27
2022-07-26T20:29:38.992Z,21.23
2022-07-26T20:32:07.351Z,21.15
2022-07-26T20:34:35.138Z,21.23
2022-07-26T20:37:02.976Z,21.07
2022-07-26T20:39:30.774Z,20.97
2022-07-26T20:41:58.648Z,21.05
2022-07-26T20:44:29.340Z,21.05
2022-07-26T20:46:58.543Z,21.09
2022-07-26T20:49:26.533Z,20.93
2022-07-26T20:51:54.424Z,20.90
2022-07-26T20:54:22.407Z,20.81
2022-07-26T20:56:50.550Z,20.85
2022-07-26T20:59:18.371Z,20.96
2022-07-26T21:01:46.194Z,20.84
2022-07-26T21:04:15.460Z,21.03
2022-07-26T21:06:43.290Z,21.04
2022-07-26T21:09:11.403Z,21.05
2022-07-26T21:11:40.185Z,21.03
2022-07-26T21:14:08.046Z,20.92
2022-07-26T21:16:36.042Z,20.86
2022-07-26T21:19:04.700Z,20.88
2022-07-26T21:21:36.822Z,20.84
2022-07-26T21:24:05.263Z,20.71
2022-07-26T21:26:33.045Z,20.79
2022-07-26T21:29:00.853Z,20.72
2022-07-26T21:31:28.672Z,20.70
2022-07-26T21:33:56.513Z,20.47
2022-07-26T21:36:24.317Z,20.66
2022-07-26T21:38:53.576Z,20.44
2022-07-26T21:41:21.496Z,20.47
2022-07-26T21:43:49.377Z,20.41
2022-07-26T21:46:17.325Z,20.63
2022-07-26T21:48:45.239Z,20.50
2022-07-26T21:51:13.102Z,20.35
2022-07-26T21:53:41.014Z,20.35
2022-07-26T21:56:11.211Z,20.42
2022-07-26T21:58:39.247Z,20.37
2022-07-26T22:01:07.581Z,20.30
2022-07-26T22:03:37.382Z,20.44
2022-07-26T22:06:05.905Z,20.33
2022-07-26T22:08:33.936Z,20.30
2022-07-26T22:11:01.757Z,20.32
2022-07-26T22:13:31.116Z,20.29
2022-07-26T22:15:58.988Z,20.26
2022-07-26T22:18:27.110Z,20.12
2022-07-26T22:20:55.089Z,20.23
2022-07-26T22:23:29.754Z,20.24
2022-07-26T22:25:58.136Z,20.10
2022-07-26T22:28:26.010Z,20.10
2022-07-26T22:30:55.619Z,20.15
2022-07-26T22:33:23.731Z,20.18
2022-07-26T22:35:51.939Z,20.09
2022-07-26T22:38:19.801Z,20.12
2022-07-26T22:40:47.710Z,19.93
2022-07-26T22:43:15.564Z,19.83
2022-07-26T22:45:43.489Z,19.74
2022-07-26T22:48:12.749Z,19.76
2022-07-26T22:50:40.607Z,19.78
2022-07-26T22:53:08.452Z,19.61
2022-07-26T22:55:36.245Z,19.58
2022-07-26T22:58:04.377Z,19.60
2022-07-26T23:00:32.293Z,19.62
2022-07-26T23:03:00.151Z,19.44
2022-07-26T23:05:45.407Z,19.33
2022-07-26T23:08:45.107Z,19.43
2022-07-26T23:11:02.535Z,19.22
2022-07-26T23:13:30.302Z,19.15
2022-07-26T23:16:00.836Z,18.95
2022-07-26T23:18:29.832Z,19.03
2022-07-26T23:20:59.268Z,19.13
2022-07-26T23:23:29.762Z,19.23
2022-07-26T23:25:59.144Z,19.26
2022-07-26T23:28:37.490Z,19.19
2022-07-26T23:31:10.293Z,19.24
2022-07-26T23:33:53.534Z,19.30
2022-07-26T23:36:24.846Z,19.30
2022-07-26T23:38:53.152Z,19.38
2022-07-26T23:41:20.994Z,19.17
2022-07-26T23:43:49.116Z,19.04
2022-07-26T23:46:17.053Z,19.11
2022-07-26T23:48:44.984Z,19.16
2022-07-26T23:51:13.026Z,19.15
2022-07-26T23:53:42.353Z,19.27
2022-07-26T23:56:10.187Z,19.17
2022-07-26T23:58:38.525Z,19.22
